sensor_id;sensor_type;location;lat;lon;timestamp;P1;durP1;ratioP1;P2;durP2;ratioP2
79468;SDS011;68936;52.526;13.326;2023-04-24T00:00:59;16.48;;;7.63;;
79468;SDS011;68936;52.526;13.326;2023-04-24T00:03:26;17.88;;;7.75;;
79468;SDS011;68936;52.526;13.326;2023-04-24T00:05:53;16.15;;;7.35;;
79468;SDS011;68936;52.526;13.326;2023-04-24T00:08:19;17.48;;;7.65;;
79468;SDS011;68936;52.526;13.326;2023-04-24T00:10:47;16.10;;;7.93;;
79468;SDS011;68936;52.526;13.326;2023-04-24T00:13:17;17.48;;;7.97;;
79468;SDS011;68936;52.526;13.326;2023-04-24T00:15:43;15.68;;;7.68;;
79468;SDS011;68936;52.526;13.326;2023-04-24T00:18:09;20.92;;;8.60;;
79468;SDS011;68936;52.526;13.326;2023-04-24T00:20:35;17.27;;;7.10;;
79468;SDS011;68936;52.526;13.326;2023-04-24T00:23:01;15.25;;;7.60;;
79468;SDS011;68936;52.526;13.326;2023-04-24T00:25:30;15.00;;;7.88;;
79468;SDS011;68936;52.526;13.326;2023-04-24T00:27:56;19.25;;;8.57;;
79468;SDS011;68936;52.526;13.326;2023-04-24T00:30:22;14.18;;;7.30;;
79468;SDS011;68936;52.526;13.326;2023-04-24T00:32:48;14.32;;;7.40;;
79468;SDS011;68936;52.526;13.326;2023-04-24T00:35:14;14.63;;;7.65;;
79468;SDS011;68936;52.526;13.326;2023-04-24T00:37:40;12.55;;;6.70;;
79468;SDS011;68936;52.526;13.326;2023-04-24T00:40:07;14.32;;;7.60;;
79468;SDS011;68936;52.526;13.326;2023-04-24T00:42:33;12.95;;;7.03;;
79468;SDS011;68936;52.526;13.326;2023-04-24T00:44:59;15.55;;;7.05;;
79468;SDS011;68936;52.526;13.326;2023-04-24T00:47:26;16.15;;;7.47;;
79468;SDS011;68936;52.526;13.326;2023-04-24T00:49:52;13.35;;;7.43;;
79468;SDS011;68936;52.526;13.326;2023-04-24T00:52:18;13.45;;;6.95;;
79468;SDS011;68936;52.526;13.326;2023-04-24T00:54:45;13.30;;;7.45;;
79468;SDS011;68936;52.526;13.326;2023-04-24T00:57:12;14.98;;;7.60;;
79468;SDS011;68936;52.526;13.326;2023-04-24T00:59:39;12.13;;;6.68;;
79468;SDS011;68936;52.526;13.326;2023-04-24T01:02:06;14.45;;;7.03;;
79468;SDS011;68936;52.526;13.326;2023-04-24T01:04:32;12.60;;;7.13;;
79468;SDS011;68936;52.526;13.326;2023-04-24T01:06:58;15.57;;;7.15;;
79468;SDS011;68936;52.526;13.326;2023-04-24T01:09:24;12.32;;;6.50;;
79468;SDS011;68936;52.526;13.326;2023-04-24T01:11:51;13.80;;;6.63;;
79468;SDS011;68936;52.526;13.326;2023-04-24T01:14:19;12.48;;;6.63;;
79468;SDS011;68936;52.526;13.326;2023-04-24T01:16:45;14.50;;;7.65;;
79468;SDS011;68936;52.526;13.326;2023-04-24T01:19:11;12.82;;;6.68;;
79468;SDS011;68936;52.526;13.326;2023-04-24T01:21:38;16.52;;;8.27;;
79468;SDS011;68936;52.526;13.326;2023-04-24T01:24:09;20.02;;;9.95;;
79468;SDS011;68936;52.526;13.326;2023-04-24T01:26:38;16.20;;;8.65;;
79468;SDS011;68936;52.526;13.326;2023-04-24T01:29:06;15.50;;;6.93;;
79468;SDS011;68936;52.526;13.326;2023-04-24T01:31:32;14.90;;;7.13;;
79468;SDS011;68936;52.526;13.326;2023-04-24T01:34:01;12.88;;;6.88;;
79468;SDS011;68936;52.526;13.326;2023-04-24T01:36:28;11.93;;;6.53;;
79468;SDS011;68936;52.526;13.326;2023-04-24T01:38:54;12.88;;;6.78;;
79468;SDS011;68936;52.526;13.326;2023-04-24T01:41:20;13.52;;;7.47;;
79468;SDS011;68936;52.526;13.326;2023-04-24T01:43:49;9.43;;;6.35;;
79468;SDS011;68936;52.526;13.326;2023-04-24T01:46:17;12.07;;;7.05;;
79468;SDS011;68936;52.526;13.326;2023-04-24T01:48:46;16.45;;;9.50;;
79468;SDS011;68936;52.526;13.326;2023-04-24T01:51:12;11.93;;;7.32;;
79468;SDS011;68936;52.526;13.326;2023-04-24T01:53:40;13.35;;;7.07;;
79468;SDS011;68936;52.526;13.326;2023-04-24T01:56:06;12.70;;;6.93;;
79468;SDS011;68936;52.526;13.326;2023-04-24T01:58:35;12.75;;;6.43;;
79468;SDS011;68936;52.526;13.326;2023-04-24T02:01:01;15.45;;;6.68;;
79468;SDS011;68936;52.526;13.326;2023-04-24T02:03:27;12.95;;;6.78;;
79468;SDS011;68936;52.526;13.326;2023-04-24T02:05:53;14.07;;;7.18;;
79468;SDS011;68936;52.526;13.326;2023-04-24T02:08:21;11.02;;;7.20;;
79468;SDS011;68936;52.526;13.326;2023-04-24T02:10:50;11.57;;;6.50;;
79468;SDS011;68936;52.526;13.326;2023-04-24T02:13:16;11.73;;;6.72;;
79468;SDS011;68936;52.526;13.326;2023-04-24T02:15:42;10.60;;;6.22;;
79468;SDS011;68936;52.526;13.326;2023-04-24T02:18:08;11.27;;;6.95;;
79468;SDS011;68936;52.526;13.326;2023-04-24T02:20:35;12.82;;;6.65;;
79468;SDS011;68936;52.526;13.326;2023-04-24T02:23:01;11.50;;;6.63;;
79468;SDS011;68936;52.526;13.326;2023-04-24T02:25:27;9.35;;;6.15;;
79468;SDS011;68936;52.526;13.326;2023-04-24T02:27:53;12.68;;;6.38;;
79468;SDS011;68936;52.526;13.326;2023-04-24T02:30:19;12.38;;;6.93;;
79468;SDS011;68936;52.526;13.326;2023-04-24T02:32:48;10.15;;;6.05;;
79468;SDS011;68936;52.526;13.326;2023-04-24T02:35:14;12.68;;;6.75;;
79468;SDS011;68936;52.526;13.326;2023-04-24T02:37:40;10.50;;;6.15;;
79468;SDS011;68936;52.526;13.326;2023-04-24T02:40:06;14.02;;;6.97;;
79468;SDS011;68936;52.526;13.326;2023-04-24T02:42:32;12.88;;;6.38;;
79468;SDS011;68936;52.526;13.326;2023-04-24T02:45:01;11.35;;;6.38;;
79468;SDS011;68936;52.526;13.326;2023-04-24T02:47:30;11.82;;;6.13;;
79468;SDS011;68936;52.526;13.326;2023-04-24T02:49:56;12.55;;;6.70;;
79468;SDS011;68936;52.526;13.326;2023-04-24T02:52:22;9.30;;;5.82;;
79468;SDS011;68936;52.526;13.326;2023-04-24T02:54:50;8.48;;;5.68;;
79468;SDS011;68936;52.526;13.326;2023-04-24T02:57:16;9.85;;;6.35;;
79468;SDS011;68936;52.526;13.326;2023-04-24T02:59:42;11.30;;;5.97;;
79468;SDS011;68936;52.526;13.326;2023-04-24T03:02:08;10.45;;;6.20;;
79468;SDS011;68936;52.526;13.326;2023-04-24T03:04:34;12.75;;;6.47;;
79468;SDS011;68936;52.526;13.326;2023-04-24T03:07:00;10.40;;;5.95;;
79468;SDS011;68936;52.526;13.326;2023-04-24T03:09:26;10.85;;;6.78;;
79468;SDS011;68936;52.526;13.326;2023-04-24T03:11:52;9.60;;;6.05;;
79468;SDS011;68936;52.526;13.326;2023-04-24T03:14:18;10.13;;;5.70;;
79468;SDS011;68936;52.526;13.326;2023-04-24T03:16:44;9.32;;;5.57;;
79468;SDS011;68936;52.526;13.326;2023-04-24T03:19:12;10.57;;;6.13;;
79468;SDS011;68936;52.526;13.326;2023-04-24T03:21:41;11.38;;;5.88;;
79468;SDS011;68936;52.526;13.326;2023-04-24T03:24:07;10.20;;;6.18;;
79468;SDS011;68936;52.526;13.326;2023-04-24T03:26:34;10.85;;;6.60;;
79468;SDS011;68936;52.526;13.326;2023-04-24T03:29:00;13.23;;;7.18;;
79468;SDS011;68936;52.526;13.326;2023-04-24T03:31:29;11.50;;;5.85;;
79468;SDS011;68936;52.526;13.326;2023-04-24T03:33:55;10.43;;;6.15;;
79468;SDS011;68936;52.526;13.326;2023-04-24T03:36:23;10.18;;;6.65;;
79468;SDS011;68936;52.526;13.326;2023-04-24T03:38:51;10.82;;;6.32;;
79468;SDS011;68936;52.526;13.326;2023-04-24T03:41:17;12.27;;;6.95;;
79468;SDS011;68936;52.526;13.326;2023-04-24T03:43:45;9.57;;;5.63;;
79468;SDS011;68936;52.526;13.326;2023-04-24T03:46:11;10.07;;;5.90;;
79468;SDS011;68936;52.526;13.326;2023-04-24T03:48:39;10.40;;;5.82;;
79468;SDS011;68936;52.526;13.326;2023-04-24T03:51:05;11.35;;;6.28;;
79468;SDS011;68936;52.526;13.326;2023-04-24T03:53:33;8.45;;;5.57;;
79468;SDS011;68936;52.526;13.326;2023-04-24T03:56:02;9.93;;;6.18;;
79468;SDS011;68936;52.526;13.326;2023-04-24T03:58:28;12.02;;;6.43;;
79468;SDS011;68936;52.526;13.326;2023-04-24T04:00:54;10.27;;;6.07;;
79468;SDS011;68936;52.526;13.326;2023-04-24T04:03:25;9.43;;;6.25;;
79468;SDS011;68936;52.526;13.326;2023-04-24T04:05:51;9.10;;;5.63;;
79468;SDS011;68936;52.526;13.326;2023-04-24T04:08:18;10.68;;;5.60;;
79468;SDS011;68936;52.526;13.326;2023-04-24T04:10:46;9.55;;;5.35;;
79468;SDS011;68936;52.526;13.326;2023-04-24T04:13:12;9.38;;;5.63;;
79468;SDS011;68936;52.526;13.326;2023-04-24T04:15:38;10.23;;;5.93;;
79468;SDS011;68936;52.526;13.326;2023-04-24T04:18:04;8.85;;;5.78;;
79468;SDS011;68936;52.526;13.326;2023-04-24T04:20:30;8.95;;;5.38;;
79468;SDS011;68936;52.526;13.326;2023-04-24T04:22:56;9.23;;;5.68;;
79468;SDS011;68936;52.526;13.326;2023-04-24T04:25:22;9.52;;;5.55;;
79468;SDS011;68936;52.526;13.326;2023-04-24T04:27:51;8.68;;;5.75;;
79468;SDS011;68936;52.526;13.326;2023-04-24T04:30:17;9.43;;;5.53;;
79468;SDS011;68936;52.526;13.326;2023-04-24T04:32:43;8.30;;;5.00;;
79468;SDS011;68936;52.526;13.326;2023-04-24T04:35:09;9.93;;;5.38;;
79468;SDS011;68936;52.526;13.326;2023-04-24T04:37:36;8.80;;;5.45;;
79468;SDS011;68936;52.526;13.326;2023-04-24T04:40:02;9.90;;;6.05;;
79468;SDS011;68936;52.526;13.326;2023-04-24T04:42:31;9.10;;;5.22;;
79468;SDS011;68936;52.526;13.326;2023-04-24T04:44:59;9.32;;;5.70;;
79468;SDS011;68936;52.526;13.326;2023-04-24T04:47:25;8.65;;;5.78;;
79468;SDS011;68936;52.526;13.326;2023-04-24T04:49:53;10.23;;;5.78;;
79468;SDS011;68936;52.526;13.326;2023-04-24T04:52:19;9.45;;;5.30;;
79468;SDS011;68936;52.526;13.326;2023-04-24T04:54:49;9.82;;;5.80;;
79468;SDS011;68936;52.526;13.326;2023-04-24T04:57:15;10.40;;;6.03;;
79468;SDS011;68936;52.526;13.326;2023-04-24T04:59:41;8.80;;;5.68;;
79468;SDS011;68936;52.526;13.326;2023-04-24T05:02:08;8.77;;;5.70;;
79468;SDS011;68936;52.526;13.326;2023-04-24T05:04:34;8.93;;;5.68;;
79468;SDS011;68936;52.526;13.326;2023-04-24T05:07:00;8.93;;;5.78;;
79468;SDS011;68936;52.526;13.326;2023-04-24T05:09:26;8.90;;;5.22;;
79468;SDS011;68936;52.526;13.326;2023-04-24T05:11:56;8.95;;;5.53;;
79468;SDS011;68936;52.526;13.326;2023-04-24T05:14:22;8.30;;;5.20;;
79468;SDS011;68936;52.526;13.326;2023-04-24T05:16:48;8.43;;;5.53;;
79468;SDS011;68936;52.526;13.326;2023-04-24T05:19:15;8.48;;;5.38;;
79468;SDS011;68936;52.526;13.326;2023-04-24T05:21:41;9.70;;;5.88;;
79468;SDS011;68936;52.526;13.326;2023-04-24T05:24:07;8.82;;;5.28;;
79468;SDS011;68936;52.526;13.326;2023-04-24T05:26:35;7.80;;;5.10;;
79468;SDS011;68936;52.526;13.326;2023-04-24T05:29:03;7.68;;;4.97;;
79468;SDS011;68936;52.526;13.326;2023-04-24T05:31:30;7.60;;;5.22;;
79468;SDS011;68936;52.526;13.326;2023-04-24T05:33:56;8.02;;;4.88;;
79468;SDS011;68936;52.526;13.326;2023-04-24T05:36:22;8.10;;;4.60;;
79468;SDS011;68936;52.526;13.326;2023-04-24T05:38:52;9.88;;;5.13;;
79468;SDS011;68936;52.526;13.326;2023-04-24T05:41:18;8.13;;;5.70;;
79468;SDS011;68936;52.526;13.326;2023-04-24T05:43:44;8.23;;;5.05;;
79468;SDS011;68936;52.526;13.326;2023-04-24T05:46:11;7.90;;;5.03;;
79468;SDS011;68936;52.526;13.326;2023-04-24T05:48:37;8.40;;;5.43;;
79468;SDS011;68936;52.526;13.326;2023-04-24T05:51:03;9.02;;;5.18;;
79468;SDS011;68936;52.526;13.326;2023-04-24T05:53:29;6.82;;;5.20;;
79468;SDS011;68936;52.526;13.326;2023-04-24T05:55:55;7.60;;;4.80;;
79468;SDS011;68936;52.526;13.326;2023-04-24T05:58:21;9.48;;;5.13;;
79468;SDS011;68936;52.526;13.326;2023-04-24T06:00:47;8.85;;;5.57;;
79468;SDS011;68936;52.526;13.326;2023-04-24T06:03:14;7.03;;;4.97;;
79468;SDS011;68936;52.526;13.326;2023-04-24T06:05:41;9.30;;;4.90;;
79468;SDS011;68936;52.526;13.326;2023-04-24T06:08:07;10.00;;;5.80;;
79468;SDS011;68936;52.526;13.326;2023-04-24T06:10:35;6.50;;;4.70;;
79468;SDS011;68936;52.526;13.326;2023-04-24T06:13:04;6.22;;;4.55;;
79468;SDS011;68936;52.526;13.326;2023-04-24T06:15:30;9.57;;;5.28;;
79468;SDS011;68936;52.526;13.326;2023-04-24T06:17:56;8.27;;;4.80;;
79468;SDS011;68936;52.526;13.326;2023-04-24T06:20:25;12.55;;;5.15;;
79468;SDS011;68936;52.526;13.326;2023-04-24T06:22:51;7.28;;;4.78;;
79468;SDS011;68936;52.526;13.326;2023-04-24T06:25:19;7.68;;;5.20;;
79468;SDS011;68936;52.526;13.326;2023-04-24T06:27:45;7.68;;;5.00;;
79468;SDS011;68936;52.526;13.326;2023-04-24T06:30:11;9.60;;;5.10;;
79468;SDS011;68936;52.526;13.326;2023-04-24T06:32:38;7.60;;;4.80;;
79468;SDS011;68936;52.526;13.326;2023-04-24T06:35:04;8.05;;;5.28;;
79468;SDS011;68936;52.526;13.326;2023-04-24T06:37:32;8.10;;;4.57;;
79468;SDS011;68936;52.526;13.326;2023-04-24T06:40:00;10.38;;;5.18;;
79468;SDS011;68936;52.526;13.326;2023-04-24T06:42:29;8.45;;;4.97;;
79468;SDS011;68936;52.526;13.326;2023-04-24T06:44:55;9.02;;;5.38;;
79468;SDS011;68936;52.526;13.326;2023-04-24T06:47:21;7.57;;;4.90;;
79468;SDS011;68936;52.526;13.326;2023-04-24T06:49:47;7.55;;;4.90;;
79468;SDS011;68936;52.526;13.326;2023-04-24T06:52:17;7.10;;;4.22;;
79468;SDS011;68936;52.526;13.326;2023-04-24T06:54:46;7.22;;;4.45;;
79468;SDS011;68936;52.526;13.326;2023-04-24T06:57:12;7.57;;;4.28;;
79468;SDS011;68936;52.526;13.326;2023-04-24T06:59:38;6.32;;;3.97;;
79468;SDS011;68936;52.526;13.326;2023-04-24T07:02:04;6.82;;;4.00;;
79468;SDS011;68936;52.526;13.326;2023-04-24T07:04:30;14.25;;;4.40;;
79468;SDS011;68936;52.526;13.326;2023-04-24T07:06:56;6.97;;;4.25;;
79468;SDS011;68936;52.526;13.326;2023-04-24T07:09:23;5.45;;;4.30;;
79468;SDS011;68936;52.526;13.326;2023-04-24T07:11:52;6.03;;;4.03;;
79468;SDS011;68936;52.526;13.326;2023-04-24T07:14:18;7.78;;;3.80;;
79468;SDS011;68936;52.526;13.326;2023-04-24T07:16:45;7.65;;;4.05;;
79468;SDS011;68936;52.526;13.326;2023-04-24T07:19:11;8.63;;;4.30;;
79468;SDS011;68936;52.526;13.326;2023-04-24T07:21:38;5.50;;;3.90;;
79468;SDS011;68936;52.526;13.326;2023-04-24T07:24:04;7.05;;;4.03;;
79468;SDS011;68936;52.526;13.326;2023-04-24T07:26:30;7.25;;;3.70;;
79468;SDS011;68936;52.526;13.326;2023-04-24T07:28:56;5.32;;;3.85;;
79468;SDS011;68936;52.526;13.326;2023-04-24T07:31:22;9.13;;;4.47;;
79468;SDS011;68936;52.526;13.326;2023-04-24T07:33:48;7.30;;;3.97;;
79468;SDS011;68936;52.526;13.326;2023-04-24T07:36:17;7.78;;;4.18;;
79468;SDS011;68936;52.526;13.326;2023-04-24T07:38:46;8.60;;;4.28;;
79468;SDS011;68936;52.526;13.326;2023-04-24T07:41:15;6.10;;;3.83;;
79468;SDS011;68936;52.526;13.326;2023-04-24T07:43:41;7.07;;;4.22;;
79468;SDS011;68936;52.526;13.326;2023-04-24T07:46:08;6.25;;;3.65;;
79468;SDS011;68936;52.526;13.326;2023-04-24T07:48:34;6.90;;;4.30;;
79468;SDS011;68936;52.526;13.326;2023-04-24T07:51:02;13.18;;;4.38;;
79468;SDS011;68936;52.526;13.326;2023-04-24T07:53:28;8.38;;;3.45;;
79468;SDS011;68936;52.526;13.326;2023-04-24T07:55:57;4.32;;;3.15;;
79468;SDS011;68936;52.526;13.326;2023-04-24T07:58:23;7.63;;;4.00;;
79468;SDS011;68936;52.526;13.326;2023-04-24T08:00:51;9.07;;;4.35;;
79468;SDS011;68936;52.526;13.326;2023-04-24T08:03:17;7.43;;;3.65;;
79468;SDS011;68936;52.526;13.326;2023-04-24T08:05:46;11.43;;;3.85;;
79468;SDS011;68936;52.526;13.326;2023-04-24T08:08:12;7.10;;;3.28;;
79468;SDS011;68936;52.526;13.326;2023-04-24T08:10:38;6.32;;;3.40;;
79468;SDS011;68936;52.526;13.326;2023-04-24T08:13:04;5.35;;;3.28;;
79468;SDS011;68936;52.526;13.326;2023-04-24T08:15:31;7.30;;;4.13;;
79468;SDS011;68936;52.526;13.326;2023-04-24T08:17:57;7.78;;;3.92;;
79468;SDS011;68936;52.526;13.326;2023-04-24T08:20:23;6.07;;;3.67;;
79468;SDS011;68936;52.526;13.326;2023-04-24T08:22:49;5.97;;;3.33;;
79468;SDS011;68936;52.526;13.326;2023-04-24T08:25:17;7.55;;;3.63;;
79468;SDS011;68936;52.526;13.326;2023-04-24T08:27:44;6.28;;;3.72;;
79468;SDS011;68936;52.526;13.326;2023-04-24T08:30:10;6.43;;;3.30;;
79468;SDS011;68936;52.526;13.326;2023-04-24T08:32:36;8.10;;;3.45;;
79468;SDS011;68936;52.526;13.326;2023-04-24T08:35:02;9.57;;;3.80;;
79468;SDS011;68936;52.526;13.326;2023-04-24T08:37:28;5.45;;;3.60;;
79468;SDS011;68936;52.526;13.326;2023-04-24T08:39:55;9.43;;;3.63;;
79468;SDS011;68936;52.526;13.326;2023-04-24T08:42:21;5.55;;;3.72;;
79468;SDS011;68936;52.526;13.326;2023-04-24T08:44:50;7.13;;;3.60;;
79468;SDS011;68936;52.526;13.326;2023-04-24T08:47:16;6.40;;;3.50;;
79468;SDS011;68936;52.526;13.326;2023-04-24T08:49:45;5.05;;;3.30;;
79468;SDS011;68936;52.526;13.326;2023-04-24T08:52:16;7.07;;;3.60;;
79468;SDS011;68936;52.526;13.326;2023-04-24T08:54:42;7.03;;;3.67;;
79468;SDS011;68936;52.526;13.326;2023-04-24T08:57:10;9.48;;;3.83;;
79468;SDS011;68936;52.526;13.326;2023-04-24T08:59:37;5.82;;;2.92;;
79468;SDS011;68936;52.526;13.326;2023-04-24T09:02:03;4.60;;;3.03;;
79468;SDS011;68936;52.526;13.326;2023-04-24T09:04:32;6.10;;;3.55;;
79468;SDS011;68936;52.526;13.326;2023-04-24T09:06:59;4.90;;;3.33;;
79468;SDS011;68936;52.526;13.326;2023-04-24T09:09:25;5.50;;;3.22;;
79468;SDS011;68936;52.526;13.326;2023-04-24T09:11:53;4.50;;;3.35;;
79468;SDS011;68936;52.526;13.326;2023-04-24T09:14:20;5.60;;;3.30;;
79468;SDS011;68936;52.526;13.326;2023-04-24T09:16:48;6.22;;;3.20;;
79468;SDS011;68936;52.526;13.326;2023-04-24T09:19:16;6.13;;;3.72;;
79468;SDS011;68936;52.526;13.326;2023-04-24T09:21:46;5.50;;;3.70;;
79468;SDS011;68936;52.526;13.326;2023-04-24T09:24:16;4.50;;;3.55;;
79468;SDS011;68936;52.526;13.326;2023-04-24T09:26:43;5.75;;;3.38;;
79468;SDS011;68936;52.526;13.326;2023-04-24T09:29:14;5.95;;;3.67;;
79468;SDS011;68936;52.526;13.326;2023-04-24T09:31:40;4.40;;;2.97;;
79468;SDS011;68936;52.526;13.326;2023-04-24T09:34:09;5.05;;;3.20;;
79468;SDS011;68936;52.526;13.326;2023-04-24T09:36:36;9.77;;;3.70;;
79468;SDS011;68936;52.526;13.326;2023-04-24T09:39:03;3.13;;;2.83;;
79468;SDS011;68936;52.526;13.326;2023-04-24T09:41:31;6.72;;;3.78;;
79468;SDS011;68936;52.526;13.326;2023-04-24T09:43:58;6.47;;;3.70;;
79468;SDS011;68936;52.526;13.326;2023-04-24T09:46:38;6.82;;;3.40;;
79468;SDS011;68936;52.526;13.326;2023-04-24T09:49:14;7.22;;;3.47;;
79468;SDS011;68936;52.526;13.326;2023-04-24T09:51:41;5.88;;;3.60;;
79468;SDS011;68936;52.526;13.326;2023-04-24T09:54:13;7.20;;;3.20;;
79468;SDS011;68936;52.526;13.326;2023-04-24T09:56:44;6.53;;;3.78;;
79468;SDS011;68936;52.526;13.326;2023-04-24T09:59:10;5.03;;;3.55;;
79468;SDS011;68936;52.526;13.326;2023-04-24T10:01:36;6.25;;;3.25;;
79468;SDS011;68936;52.526;13.326;2023-04-24T10:04:05;6.75;;;3.60;;
79468;SDS011;68936;52.526;13.326;2023-04-24T10:06:33;5.00;;;3.58;;
79468;SDS011;68936;52.526;13.326;2023-04-24T10:08:59;5.78;;;3.47;;
79468;SDS011;68936;52.526;13.326;2023-04-24T10:11:28;4.95;;;3.10;;
79468;SDS011;68936;52.526;13.326;2023-04-24T10:13:57;5.35;;;3.25;;
79468;SDS011;68936;52.526;13.326;2023-04-24T10:16:24;6.20;;;4.10;;
79468;SDS011;68936;52.526;13.326;2023-04-24T10:18:52;5.20;;;3.20;;
79468;SDS011;68936;52.526;13.326;2023-04-24T10:21:20;5.30;;;3.30;;
79468;SDS011;68936;52.526;13.326;2023-04-24T10:23:46;6.10;;;3.70;;
79468;SDS011;68936;52.526;13.326;2023-04-24T10:26:13;4.72;;;3.20;;
79468;SDS011;68936;52.526;13.326;2023-04-24T10:28:44;7.53;;;3.75;;
79468;SDS011;68936;52.526;13.326;2023-04-24T10:31:10;5.55;;;3.30;;
79468;SDS011;68936;52.526;13.326;2023-04-24T10:33:37;5.68;;;2.97;;
79468;SDS011;68936;52.526;13.326;2023-04-24T10:36:06;5.50;;;3.03;;
79468;SDS011;68936;52.526;13.326;2023-04-24T10:38:35;6.38;;;2.90;;
79468;SDS011;68936;52.526;13.326;2023-04-24T10:41:08;26.95;;;5.82;;
79468;SDS011;68936;52.526;13.326;2023-04-24T10:43:38;20.70;;;3.80;;
79468;SDS011;68936;52.526;13.326;2023-04-24T10:46:08;12.38;;;3.10;;
79468;SDS011;68936;52.526;13.326;2023-04-24T10:48:41;17.00;;;3.85;;
79468;SDS011;68936;52.526;13.326;2023-04-24T10:51:11;16.17;;;4.72;;
79468;SDS011;68936;52.526;13.326;2023-04-24T10:53:37;18.98;;;7.68;;
79468;SDS011;68936;52.526;13.326;2023-04-24T10:56:07;14.45;;;10.85;;
79468;SDS011;68936;52.526;13.326;2023-04-24T10:58:38;22.77;;;15.85;;
79468;SDS011;68936;52.526;13.326;2023-04-24T11:01:05;22.05;;;15.90;;
79468;SDS011;68936;52.526;13.326;2023-04-24T11:03:32;18.17;;;11.93;;
79468;SDS011;68936;52.526;13.326;2023-04-24T11:08:38;12.45;;;10.32;;
79468;SDS011;68936;52.526;13.326;2023-04-24T11:11:14;12.20;;;7.25;;
79468;SDS011;68936;52.526;13.326;2023-04-24T11:21:46;5.80;;;3.92;;
79468;SDS011;68936;52.526;13.326;2023-04-24T11:26:57;5.38;;;3.10;;
79468;SDS011;68936;52.526;13.326;2023-04-24T11:29:38;4.82;;;3.28;;
79468;SDS011;68936;52.526;13.326;2023-04-24T11:34:50;4.18;;;2.58;;
79468;SDS011;68936;52.526;13.326;2023-04-24T11:37:16;4.80;;;3.20;;
79468;SDS011;68936;52.526;13.326;2023-04-24T11:39:42;5.72;;;3.22;;
79468;SDS011;68936;52.526;13.326;2023-04-24T11:42:09;5.35;;;2.95;;
79468;SDS011;68936;52.526;13.326;2023-04-24T11:44:35;5.03;;;2.72;;
79468;SDS011;68936;52.526;13.326;2023-04-24T11:47:05;6.40;;;3.17;;
79468;SDS011;68936;52.526;13.326;2023-04-24T11:49:32;5.30;;;3.10;;
79468;SDS011;68936;52.526;13.326;2023-04-24T11:52:00;6.22;;;2.78;;
79468;SDS011;68936;52.526;13.326;2023-04-24T11:54:27;4.43;;;2.67;;
79468;SDS011;68936;52.526;13.326;2023-04-24T11:56:58;3.80;;;2.28;;
79468;SDS011;68936;52.526;13.326;2023-04-24T11:59:24;5.32;;;2.70;;
79468;SDS011;68936;52.526;13.326;2023-04-24T12:01:53;7.78;;;2.45;;
79468;SDS011;68936;52.526;13.326;2023-04-24T12:04:19;3.47;;;2.33;;
79468;SDS011;68936;52.526;13.326;2023-04-24T12:07:03;4.68;;;2.08;;
79468;SDS011;68936;52.526;13.326;2023-04-24T12:12:05;3.00;;;1.10;;
79468;SDS011;68936;52.526;13.326;2023-04-24T12:14:32;1.70;;;0.90;;
79468;SDS011;68936;52.526;13.326;2023-04-24T12:16:58;1.83;;;0.98;;
79468;SDS011;68936;52.526;13.326;2023-04-24T12:19:24;5.13;;;1.00;;
79468;SDS011;68936;52.526;13.326;2023-04-24T12:22:00;2.72;;;0.80;;
79468;SDS011;68936;52.526;13.326;2023-04-24T12:24:26;2.60;;;0.77;;
79468;SDS011;68936;52.526;13.326;2023-04-24T12:26:53;1.60;;;0.70;;
79468;SDS011;68936;52.526;13.326;2023-04-24T12:29:20;1.50;;;0.65;;
79468;SDS011;68936;52.526;13.326;2023-04-24T12:31:46;1.80;;;0.90;;
79468;SDS011;68936;52.526;13.326;2023-04-24T12:34:22;2.75;;;0.65;;
79468;SDS011;68936;52.526;13.326;2023-04-24T12:36:48;2.67;;;0.70;;
79468;SDS011;68936;52.526;13.326;2023-04-24T12:39:18;2.10;;;0.98;;
79468;SDS011;68936;52.526;13.326;2023-04-24T12:44:33;2.50;;;0.90;;
79468;SDS011;68936;52.526;13.326;2023-04-24T12:47:02;0.98;;;0.82;;
79468;SDS011;68936;52.526;13.326;2023-04-24T12:49:31;1.42;;;0.77;;
79468;SDS011;68936;52.526;13.326;2023-04-24T12:51:57;1.17;;;0.60;;
79468;SDS011;68936;52.526;13.326;2023-04-24T12:54:29;2.42;;;0.68;;
79468;SDS011;68936;52.526;13.326;2023-04-24T12:57:00;0.70;;;0.50;;
79468;SDS011;68936;52.526;13.326;2023-04-24T12:59:26;0.73;;;0.50;;
79468;SDS011;68936;52.526;13.326;2023-04-24T13:01:52;1.17;;;0.70;;
79468;SDS011;68936;52.526;13.326;2023-04-24T13:04:18;1.33;;;0.80;;
79468;SDS011;68936;52.526;13.326;2023-04-24T13:06:44;0.85;;;0.47;;
79468;SDS011;68936;52.526;13.326;2023-04-24T13:09:10;2.42;;;0.70;;
79468;SDS011;68936;52.526;13.326;2023-04-24T13:11:36;0.70;;;0.50;;
79468;SDS011;68936;52.526;13.326;2023-04-24T13:14:02;1.20;;;0.60;;
79468;SDS011;68936;52.526;13.326;2023-04-24T13:16:28;1.58;;;0.52;;
79468;SDS011;68936;52.526;13.326;2023-04-24T13:18:55;0.75;;;0.63;;
79468;SDS011;68936;52.526;13.326;2023-04-24T13:21:21;0.65;;;0.50;;
79468;SDS011;68936;52.526;13.326;2023-04-24T13:23:47;1.30;;;0.70;;
79468;SDS011;68936;52.526;13.326;2023-04-24T13:26:13;1.67;;;1.00;;
79468;SDS011;68936;52.526;13.326;2023-04-24T13:28:39;1.80;;;0.90;;
79468;SDS011;68936;52.526;13.326;2023-04-24T13:31:05;1.13;;;0.70;;
79468;SDS011;68936;52.526;13.326;2023-04-24T13:33:31;1.35;;;0.70;;
79468;SDS011;68936;52.526;13.326;2023-04-24T13:35:57;1.33;;;0.70;;
79468;SDS011;68936;52.526;13.326;2023-04-24T13:38:23;1.73;;;1.00;;
79468;SDS011;68936;52.526;13.326;2023-04-24T13:40:49;1.65;;;0.68;;
79468;SDS011;68936;52.526;13.326;2023-04-24T13:43:15;4.18;;;1.02;;
79468;SDS011;68936;52.526;13.326;2023-04-24T13:45:41;0.98;;;0.50;;
79468;SDS011;68936;52.526;13.326;2023-04-24T13:48:10;2.58;;;0.70;;
79468;SDS011;68936;52.526;13.326;2023-04-24T13:50:36;2.13;;;0.40;;
79468;SDS011;68936;52.526;13.326;2023-04-24T13:53:02;0.90;;;0.50;;
79468;SDS011;68936;52.526;13.326;2023-04-24T13:55:28;1.35;;;0.90;;
79468;SDS011;68936;52.526;13.326;2023-04-24T13:57:54;1.88;;;1.17;;
79468;SDS011;68936;52.526;13.326;2023-04-24T14:00:21;1.65;;;0.80;;
79468;SDS011;68936;52.526;13.326;2023-04-24T14:02:47;1.65;;;0.70;;
79468;SDS011;68936;52.526;13.326;2023-04-24T14:05:13;3.15;;;1.25;;
79468;SDS011;68936;52.526;13.326;2023-04-24T14:07:40;2.35;;;0.80;;
79468;SDS011;68936;52.526;13.326;2023-04-24T14:10:08;1.95;;;0.88;;
79468;SDS011;68936;52.526;13.326;2023-04-24T14:12:35;0.60;;;0.60;;
79468;SDS011;68936;52.526;13.326;2023-04-24T14:15:01;1.70;;;0.82;;
79468;SDS011;68936;52.526;13.326;2023-04-24T14:17:29;4.40;;;0.60;;
79468;SDS011;68936;52.526;13.326;2023-04-24T14:19:56;0.63;;;0.55;;
79468;SDS011;68936;52.526;13.326;2023-04-24T14:22:24;0.77;;;0.50;;
79468;SDS011;68936;52.526;13.326;2023-04-24T14:24:53;0.50;;;0.50;;
79468;SDS011;68936;52.526;13.326;2023-04-24T14:27:19;2.00;;;0.60;;
79468;SDS011;68936;52.526;13.326;2023-04-24T14:29:45;1.58;;;0.77;;
79468;SDS011;68936;52.526;13.326;2023-04-24T14:32:11;1.85;;;0.43;;
79468;SDS011;68936;52.526;13.326;2023-04-24T14:34:40;1.85;;;0.80;;
79468;SDS011;68936;52.526;13.326;2023-04-24T14:37:06;1.20;;;0.82;;
79468;SDS011;68936;52.526;13.326;2023-04-24T14:39:32;1.00;;;0.73;;
79468;SDS011;68936;52.526;13.326;2023-04-24T14:41:58;0.73;;;0.60;;
79468;SDS011;68936;52.526;13.326;2023-04-24T14:44:24;2.75;;;1.50;;
79468;SDS011;68936;52.526;13.326;2023-04-24T14:46:51;1.30;;;1.00;;
79468;SDS011;68936;52.526;13.326;2023-04-24T14:49:17;1.55;;;1.20;;
79468;SDS011;68936;52.526;13.326;2023-04-24T14:51:43;1.80;;;1.23;;